createdAt,value
2022-10-20T00:04:06.607Z,92.81622
2022-10-20T00:09:08.628Z,93.27187
2022-10-20T00:14:10.408Z,93.72587
2022-10-20T00:19:12.240Z,94.08569
2022-10-20T00:24:13.890Z,96.06115
2022-10-20T00:29:15.439Z,94.12302
2022-10-20T00:34:17.162Z,95.93953
2022-10-20T00:39:18.729Z,97.07496
2022-10-20T00:44:20.230Z,95.67806
2022-10-20T00:49:21.889Z,96.58915
2022-10-20T00:54:23.409Z,94.89056
2022-10-20T00:59:24.925Z,97.33022
2022-10-20T01:04:27.403Z,95.08039
2022-10-20T01:09:29.202Z,95.45483
2022-10-20T01:14:31.056Z,96.22006
2022-10-20T01:19:32.896Z,97.32524
2022-10-20T01:24:34.731Z,97.71542
2022-10-20T01:29:36.505Z,97.09516
2022-10-20T01:34:38.508Z,93.95097
2022-10-20T01:39:40.323Z,99.56994
2022-10-20T01:44:42.211Z,100
2022-10-20T01:49:44.010Z,96.73999
2022-10-20T01:54:45.764Z,100
2022-10-20T01:59:47.614Z,100
2022-10-20T02:04:49.762Z,99.92009
2022-10-20T02:09:51.659Z,99.25296
2022-10-20T02:14:53.469Z,100
2022-10-20T02:19:55.410Z,98.22382
2022-10-20T02:24:57.271Z,96.70143
2022-10-20T02:29:59.080Z,98.56165
2022-10-20T02:35:05.003Z,97.5369
2022-10-20T02:40:08.830Z,97.57168
2022-10-20T02:45:10.594Z,99.90714
2022-10-20T02:50:12.527Z,97.9098
2022-10-20T02:55:14.356Z,99.11989
2022-10-20T03:00:16.143Z,100
2022-10-20T03:05:19.955Z,98.69467
2022-10-20T03:10:21.411Z,100
2022-10-20T03:15:23.009Z,99.45485
2022-10-20T03:20:24.512Z,97.78797
2022-10-20T03:25:26.103Z,96.92881
2022-10-20T03:30:27.697Z,96.17407
2022-10-20T03:35:29.421Z,97.20491
2022-10-20T03:40:31.098Z,93.74177
2022-10-20T03:45:32.854Z,98.12877
2022-10-20T03:50:34.715Z,98.75534
2022-10-20T03:55:36.399Z,96.72408
2022-10-20T04:00:37.853Z,96.75028
2022-10-20T04:05:39.900Z,95.88654
2022-10-20T04:10:41.638Z,97.8194
2022-10-20T04:15:43.457Z,98.18107
2022-10-20T04:20:45.229Z,98.90511
2022-10-20T04:25:47.047Z,99.45336
2022-10-20T04:30:48.850Z,97.47177
2022-10-20T04:40:53.055Z,94.49171
2022-10-20T04:45:54.971Z,91.13099
2022-10-20T04:50:56.759Z,90.79505
2022-10-20T04:55:58.554Z,89.97037
2022-10-20T05:01:00.419Z,88.37411
2022-10-20T05:06:02.647Z,87.28539
2022-10-20T05:11:04.305Z,89.95745
2022-10-20T05:16:06.096Z,89.54507
2022-10-20T05:21:09.357Z,87.75987
2022-10-20T05:26:11.381Z,85.07665
2022-10-20T05:31:13.538Z,86.02112
2022-10-20T05:36:19.322Z,84.34187
2022-10-20T05:41:23.466Z,81.74415
2022-10-20T05:46:25.116Z,82.87672
2022-10-20T05:51:26.760Z,78.63097
2022-10-20T05:56:28.200Z,78.38966
2022-10-20T06:01:30.185Z,76.97766
2022-10-20T06:06:32.230Z,73.4883
2022-10-20T06:11:38.425Z,75.1212
2022-10-20T06:16:40.689Z,72.66266
2022-10-20T06:26:43.878Z,74.56575
2022-10-20T06:31:45.350Z,70.7235
2022-10-20T06:36:47.094Z,69.70631
2022-10-20T06:41:48.839Z,70.78908
2022-10-20T06:46:50.611Z,70.45755
2022-10-20T06:51:52.514Z,72.02587
2022-10-20T06:56:54.283Z,69.35642
2022-10-20T07:01:56.083Z,70.0826
2022-10-20T07:06:58.053Z,69.71473
2022-10-20T07:11:59.760Z,67.90526
2022-10-20T07:17:01.500Z,67.19259
2022-10-20T07:22:03.272Z,65.82268
2022-10-20T07:27:04.779Z,67.97254
2022-10-20T07:32:06.586Z,64.12567
2022-10-20T07:37:08.616Z,61.94216
2022-10-20T07:42:10.336Z,58.34175
2022-10-20T07:47:12.245Z,59.70898
2022-10-20T07:52:14.158Z,56.23297
2022-10-20T07:57:15.905Z,58.84935
2022-10-20T08:02:17.585Z,60.99345
2022-10-20T08:07:19.338Z,57.1162
2022-10-20T08:12:20.885Z,56.93777
2022-10-20T08:17:22.381Z,57.24344
2022-10-20T08:22:24.281Z,56.16821
2022-10-20T08:27:26.022Z,55.49895
2022-10-20T08:32:27.820Z,53.81785
2022-10-20T08:37:29.991Z,54.98845
2022-10-20T08:42:31.594Z,54.11476
2022-10-20T08:47:33.808Z,52.39776
2022-10-20T08:52:35.816Z,51.14611
2022-10-20T08:57:38.067Z,50.87527
2022-10-20T09:02:40.092Z,47.72209
2022-10-20T09:07:42.086Z,51.22682
2022-10-20T09:12:43.967Z,49.53771
2022-10-20T09:17:45.747Z,49.4125
2022-10-20T09:22:47.677Z,47.71691
2022-10-20T09:27:49.486Z,47.39373
2022-10-20T09:32:51.464Z,46.19294
2022-10-20T09:37:53.611Z,48.14978
2022-10-20T09:42:55.460Z,42.97161
2022-10-20T09:47:57.260Z,43.43368
2022-10-20T09:52:59.017Z,40.4526
2022-10-20T09:58:00.754Z,42.45185
2022-10-20T10:03:02.613Z,39.70363
2022-10-20T10:08:04.557Z,41.38273
2022-10-20T10:18:13.229Z,36.73621
2022-10-20T10:23:15.243Z,35.39378
2022-10-20T10:28:17.165Z,34.63366
2022-10-20T10:33:18.686Z,35.24031
2022-10-20T10:38:20.429Z,32.76628
2022-10-20T10:43:22.046Z,32.58796
2022-10-20T10:48:23.583Z,34.89133
2022-10-20T10:53:25.076Z,34.98821
2022-10-20T10:58:26.701Z,36.13511
2022-10-20T11:03:28.249Z,36.65468
2022-10-20T11:08:29.932Z,33.39559
2022-10-20T11:13:31.468Z,33.04618
2022-10-20T11:18:32.922Z,31.92271
2022-10-20T11:28:36.301Z,32.79616
2022-10-20T11:33:40.709Z,33.23882
2022-10-20T11:38:43.375Z,33.72077
2022-10-20T11:43:45.276Z,33.63439
2022-10-20T11:48:46.759Z,32.67475
2022-10-20T11:53:48.618Z,34.68921
2022-10-20T11:58:50.525Z,34.52366
2022-10-20T12:03:52.213Z,33.72567
2022-10-20T12:08:54.291Z,33.1089
2022-10-20T12:13:56.240Z,34.57167
2022-10-20T12:18:58.109Z,34.91196
2022-10-20T12:23:59.909Z,33.68835
2022-10-20T12:29:01.727Z,31.85491
2022-10-20T12:34:03.492Z,34.29774
2022-10-20T12:39:05.734Z,32.05475
2022-10-20T12:44:07.610Z,33.47166
2022-10-20T12:49:11.865Z,32.7355
2022-10-20T12:54:14.135Z,32.89121
2022-10-20T12:59:15.628Z,34.1116
2022-10-20T13:04:17.296Z,32.83028
2022-10-20T13:09:19.134Z,32.89524
2022-10-20T13:14:20.646Z,32.97185
2022-10-20T13:19:22.317Z,32.22049
2022-10-20T13:24:23.836Z,32.54958
2022-10-20T13:29:25.606Z,33.30448
2022-10-20T13:34:27.041Z,32.40817
2022-10-20T13:39:28.943Z,32.70514
2022-10-20T13:44:31.804Z,32.47154
2022-10-20T13:49:33.750Z,33.57513
2022-10-20T13:54:35.326Z,33.30962
2022-10-20T13:59:38.623Z,33.65366
2022-10-20T14:04:42.178Z,33.96585
2022-10-20T14:09:47.469Z,34.51339
2022-10-20T14:14:51.086Z,33.45268
2022-10-20T14:19:53.055Z,32.59875
2022-10-20T14:24:54.807Z,33.90168
2022-10-20T14:29:56.581Z,33.05785
2022-10-20T14:34:58.390Z,33.66001
2022-10-20T14:40:01.518Z,34.20175
2022-10-20T14:45:03.315Z,34.40648
2022-10-20T14:50:05.248Z,33.927
2022-10-20T14:55:07.229Z,33.83715
2022-10-20T15:00:09.032Z,34.49487
2022-10-20T15:05:10.770Z,34.18844
2022-10-20T15:10:12.841Z,34.12611
2022-10-20T15:15:14.746Z,33.91646
2022-10-20T15:20:24.445Z,34.48429
2022-10-20T15:25:26.071Z,33.80385
2022-10-20T15:30:27.545Z,35.02273
2022-10-20T15:35:28.995Z,34.92843
2022-10-20T15:40:30.903Z,33.98081
2022-10-20T15:45:32.636Z,36.30731
2022-10-20T15:50:34.331Z,34.75401
2022-10-20T15:55:36.174Z,37.66942
2022-10-20T16:00:37.946Z,38.01869
2022-10-20T16:05:39.975Z,38.5344
2022-10-20T16:10:42.119Z,39.89264
2022-10-20T16:15:43.904Z,40.0374
2022-10-20T16:20:45.740Z,40.39663
2022-10-20T16:25:47.691Z,41.84787
2022-10-20T16:30:49.658Z,43.47456
2022-10-20T16:35:51.445Z,43.67341
2022-10-20T16:40:53.415Z,46.31055
2022-10-20T16:45:55.254Z,47.8802
2022-10-20T16:50:57.227Z,50.39423
2022-10-20T16:55:59.125Z,51.90029
2022-10-20T17:01:00.946Z,58.25655
2022-10-20T17:06:02.750Z,61.092
2022-10-20T17:11:04.817Z,62.24206
2022-10-20T17:16:06.621Z,63.76556
2022-10-20T17:21:08.380Z,66.89381
2022-10-20T17:26:10.429Z,70.048
2022-10-20T17:31:12.411Z,75.11493
2022-10-20T17:36:14.298Z,77.14599
2022-10-20T17:41:16.504Z,75.68227
2022-10-20T17:46:18.332Z,68.49903
2022-10-20T17:51:20.252Z,70.59123
2022-10-20T17:56:21.812Z,76.57467
2022-10-20T18:01:23.413Z,80.95811
2022-10-20T18:06:27.076Z,76.93023
2022-10-20T18:11:30.691Z,77.87216
2022-10-20T18:16:32.294Z,85.16163
2022-10-20T18:21:33.943Z,91.09161
2022-10-20T18:26:35.445Z,97.07131
2022-10-20T18:31:37.029Z,99.80451
2022-10-20T18:36:41.874Z,98.88063
2022-10-20T18:41:46.753Z,100
2022-10-20T18:46:48.181Z,100
2022-10-20T18:51:49.715Z,100
2022-10-20T18:56:51.260Z,100
2022-10-20T19:01:53.079Z,100
2022-10-20T19:06:54.668Z,100
2022-10-20T19:11:56.448Z,98.76432
2022-10-20T19:16:57.866Z,96.32299
2022-10-20T19:21:59.329Z,96.71505
2022-10-20T19:32:11.695Z,90.51722
2022-10-20T19:37:13.570Z,92.73348
2022-10-20T19:42:16.194Z,93.25294
2022-10-20T19:47:17.957Z,93.61589
2022-10-20T19:52:19.575Z,87.2267
2022-10-20T19:57:21.229Z,87.02039
2022-10-20T20:02:23.338Z,87.28704
2022-10-20T20:07:25.158Z,89.74909
2022-10-20T20:12:27.156Z,89.00522
2022-10-20T20:17:28.995Z,87.67064
2022-10-20T20:22:30.879Z,86.28367
2022-10-20T20:27:32.861Z,81.17171
2022-10-20T20:32:36.997Z,79.98839
2022-10-20T20:37:39.612Z,79.31123
2022-10-20T20:42:42.509Z,76.79636
2022-10-20T20:47:44.426Z,78.29701
2022-10-20T20:52:46.336Z,74.02108
2022-10-20T20:57:48.475Z,76.80983
2022-10-20T21:02:50.779Z,77.77679
2022-10-20T21:07:52.886Z,75.16349
2022-10-20T21:12:55.484Z,73.26481
2022-10-20T21:17:57.666Z,74.2557
2022-10-20T21:22:59.621Z,72.97195
2022-10-20T21:28:01.661Z,73.06021
2022-10-20T21:33:03.651Z,71.51179
2022-10-20T21:38:05.730Z,71.96497
2022-10-20T21:43:07.891Z,72.83898
2022-10-20T21:48:09.956Z,74.03715
2022-10-20T21:53:11.985Z,73.93522
2022-10-20T21:58:13.970Z,73.73591
2022-10-20T22:03:16.126Z,74.20295
2022-10-20T22:08:18.495Z,74.88578
2022-10-20T22:13:21.170Z,73.53361
2022-10-20T22:18:22.901Z,75.77689
2022-10-20T22:23:24.952Z,72.88465
2022-10-20T22:28:26.293Z,75.05593
2022-10-20T22:33:27.887Z,76.06835
2022-10-20T22:38:29.409Z,82.14528
2022-10-20T22:43:31.348Z,87.76038
2022-10-20T22:48:32.947Z,89.01361
2022-10-20T22:53:34.682Z,87.78027
2022-10-20T22:58:36.403Z,99.33285
2022-10-20T23:03:37.929Z,99.17543
2022-10-20T23:08:39.476Z,100
2022-10-20T23:13:41.159Z,100
2022-10-20T23:18:42.642Z,100
2022-10-20T23:23:44.448Z,100
2022-10-20T23:28:46.612Z,100
2022-10-20T23:33:48.614Z,100
2022-10-20T23:38:50.267Z,100
2022-10-20T23:43:52.133Z,100
2022-10-20T23:48:54.036Z,100
2022-10-20T23:53:55.873Z,100
2022-10-20T23:58:57.992Z,100
